Terminal Aerodrome Forecast
Issued by NWS Hastings, NE

Home | Current Version | Previous Version | Text Only | Print | Product List | Glossary On
Versions: 1 2 3 4 5 6 7 8 9 10 11 12 13 14 15 16 17 18 19 20 21 22 23 24 25 26 27 28
000
FTUS43 KGID 020520
TAFGRI
TAF
KGRI 020520Z 0206/0306 VRB05KT P6SM SCT250
     FM020900 14005KT P6SM SCT120 BKN200
     FM021800 17010KT P6SM FEW060 SCT100
     FM030200 15008KT P6SM FEW120 SCT200=

USA.gov is the U.S. government's official web portal to all federal, state and local government web resources and services.